Pagina principale
METAR-TAF:

METAR-TAF

Aeroporti :

Dübendorf, Svizzera

latitudine: 47-23-55N, longitudine: 8-38-53E, altezza: 448 m

Osservazione

Il bollettino è stato emesso 40 minuti fa, alle 22:50 UTC
Vento 4 kt da sud/sud-est
Temperature 9°C
Umidità 81%
Pressione 1010 hPa
Visibilità 10 km o più
Poco nuvoloso ad un'altezza di 1800 ft
Nuvoloso ad un'altezza di 4000 ft
Cielo coperto ad un'altezza di 9400 ft

METAR: LSMD 152250Z AUTO 15004KT 9999NDV FEW018 BKN040 OVC094 09/06 Q1010 RMK

Ora: 01:30 (23:30 UTC)


TAF: mancante

Osservazioni e previsioni meteorologiche di più di 4000 aeroporti (messaggi METAR e TAF).

Le stazioni disponibili sono rappresentate dai dischi gialli e rossi sulla carta.

Puntare il mouse per vedere il nome della stazione.

Clicca sopra per visualizzare le osservazioni e previsioni meteorologiche.

Per cambiare la mappa : fare clic sui pulsanti verdi con una croce nera per ingrandire, il pulsante verde con un trattino per diminuire, o sulla freccia verde per le mappe adiacenti.


METAR-TAF: